Time;durP1;ratioP1;P1;durP2;ratioP2;P2;SDS_P1;SDS_P2;PMS_P1;PMS_P2;Temp;Humidity;BMP_temperature;BMP_pressure;BME280_temperature;BME280_humidity;BME280_pressure;Samples;Min_cycle;Max_cycle;Signal;HPM_P1;HPM_P2
2022/12/21 00:01:17;;;;;;;9.53;5.33;;;;;;;-1.20;96.14;100849.66;6377768;27;20062;-74
2022/12/21 00:04:17;;;;;;;8.80;4.70;;;;;;;-1.30;94.31;100843.69;6377606;27;20039;-75
2022/12/21 00:07:18;;;;;;;8.43;4.47;;;;;;;-1.32;95.81;100840.28;6378685;27;20072;-74
2022/12/21 00:10:22;;;;;;;9.00;4.57;;;;;;;-1.31;95.74;100848.81;6377505;27;20043;-75
2022/12/21 00:13:25;;;;;;;7.07;4.25;;;;;;;-1.34;95.50;100842.00;6378686;27;20051;-74
2022/12/21 00:16:32;;;;;;;19.60;4.32;;;;;;;-1.31;95.60;100847.09;6378711;27;20449;-74
2022/12/21 00:19:40;;;;;;;7.22;4.20;;;;;;;-1.34;95.27;100851.38;6377308;27;20047;-74
2022/12/21 00:22:41;;;;;;;10.50;5.28;;;;;;;-1.37;95.58;100852.22;6377422;27;20086;-75
2022/12/21 00:25:42;;;;;;;11.82;5.40;;;;;;;-1.39;95.65;100856.50;6375964;27;20184;-75
2022/12/21 00:28:43;;;;;;;6.72;4.00;;;;;;;-1.43;96.15;100863.31;6373445;27;20035;-74
2022/12/21 00:31:46;;;;;;;8.10;4.40;;;;;;;-1.48;96.76;100867.56;6374436;27;20444;-74
2022/12/21 00:34:48;;;;;;;10.50;4.80;;;;;;;-1.58;97.83;100863.28;6374540;27;20491;-74
2022/12/21 00:37:49;;;;;;;16.90;3.30;;;;;;;-1.54;98.66;100862.44;6373024;27;20064;-74
2022/12/21 00:40:57;;;;;;;9.65;4.32;;;;;;;-1.56;100.00;100851.34;6374348;27;20043;-74
2022/12/21 00:43:58;;;;;;;10.88;4.63;;;;;;;-1.57;100.00;100851.34;6374275;27;20411;-75
2022/12/21 00:46:58;;;;;;;7.90;4.80;;;;;;;-1.59;100.00;100851.34;6374171;27;20479;-75
2022/12/21 00:49:59;;;;;;;8.57;5.22;;;;;;;-1.62;99.98;100847.06;6372867;27;20126;-75
2022/12/21 00:53:00;;;;;;;9.18;4.15;;;;;;;-1.64;100.00;100846.22;6372892;27;20418;-73
2022/12/21 00:56:03;;;;;;;6.95;4.97;;;;;;;-1.69;100.00;100836.81;6374076;27;20046;-73
2022/12/21 00:59:04;;;;;;;10.68;6.30;;;;;;;-1.73;99.92;100825.75;6374008;27;20039;-75
2022/12/21 01:02:05;;;;;;;5.93;3.42;;;;;;;-1.70;100.00;100825.72;6372906;27;20036;-75
2022/12/21 01:05:06;;;;;;;6.63;3.42;;;;;;;-1.70;100.00;100824.88;6372583;27;20040;-74
2022/12/21 01:08:07;;;;;;;8.30;5.10;;;;;;;-1.73;99.22;100819.75;6374241;27;20046;-75
2022/12/21 01:11:10;;;;;;;15.00;3.83;;;;;;;-1.80;99.60;100815.50;6372427;27;20283;-73
2022/12/21 01:14:11;;;;;;;8.75;4.00;;;;;;;-1.78;99.21;100813.78;6373548;27;20044;-73
2022/12/21 01:17:12;;;;;;;8.20;4.50;;;;;;;-1.82;98.59;100808.66;6355057;27;20054;-73
2022/12/21 01:20:13;;;;;;;6.72;3.35;;;;;;;-1.84;98.20;100809.50;6372187;27;20067;-73
2022/12/21 01:23:15;;;;;;;8.00;3.85;;;;;;;-1.91;98.48;100802.69;6372171;27;20402;-73
2022/12/21 01:26:16;;;;;;;11.65;4.85;;;;;;;-1.89;98.96;100804.38;6373331;27;20035;-74
2022/12/21 01:29:17;;;;;;;15.98;4.57;;;;;;;-1.88;98.47;100792.44;6373679;27;20038;-74
2022/12/21 01:32:20;;;;;;;7.72;4.78;;;;;;;-1.89;98.79;100795.88;6371860;27;20423;-73
2022/12/21 01:35:22;;;;;;;6.50;3.55;;;;;;;-1.93;98.04;100791.59;6373154;27;20079;-75
2022/12/21 01:38:23;;;;;;;7.05;4.00;;;;;;;-1.95;99.42;100790.75;6371559;27;20039;-74
2022/12/21 01:41:26;;;;;;;7.70;5.47;;;;;;;-1.95;99.66;100793.28;6372902;27;20043;-75
2022/12/21 01:45:19;;;;;;;11.57;5.25;;;;;;;-1.97;98.98;100785.59;6372887;27;20085;-74
2022/12/21 01:48:20;;;;;;;5.55;2.80;;;;;;;-2.02;100.00;100779.63;6264564;27;20411;-75
2022/12/21 01:51:22;;;;;;;9.13;4.57;;;;;;;-1.99;100.00;100778.78;6371328;27;20045;-74
2022/12/21 01:54:27;;;;;;;15.68;5.28;;;;;;;-2.05;100.00;100771.94;6372667;27;20438;-74
2022/12/21 01:57:33;;;;;;;10.32;4.45;;;;;;;-2.14;100.00;100766.81;6372428;27;20096;-75
2022/12/21 02:00:35;;;;;;;10.85;5.10;;;;;;;-2.27;100.00;100763.38;6372557;27;20473;-73
2022/12/21 02:03:42;;;;;;;5.30;4.20;;;;;;;-2.16;100.00;100760.81;6371087;27;20039;-73
2022/12/21 02:06:54;;;;;;;9.00;4.28;;;;;;;-2.08;100.00;100766.81;6371016;27;20479;-74
2022/12/21 02:09:55;;;;;;;;;;;;;;;-2.07;100.00;100759.16;6354111;27;20088;-74
2022/12/21 02:13:10;;;;;;;8.57;2.80;;;;;;;-2.15;100.00;100748.06;6370752;27;19923;-73
2022/12/21 02:16:24;;;;;;;8.82;6.07;;;;;;;-2.16;100.00;100743.81;6372080;27;20043;-75
2022/12/21 02:19:41;;;;;;;10.68;5.25;;;;;;;-2.21;100.00;100748.03;6371970;27;20121;-73
2022/12/21 02:23:23;;;;;;;7.35;4.63;;;;;;;-2.21;100.00;100725.03;6371941;27;20471;-74
2022/12/21 02:27:11;;;;;;;10.85;4.78;;;;;;;-2.24;100.00;100717.38;6371647;27;20535;-74
2022/12/21 02:30:17;;;;;;;7.57;3.75;;;;;;;-2.32;100.00;100725.00;6260416;27;20512;-73
2022/12/21 02:33:17;;;;;;;10.32;4.75;;;;;;;-2.31;100.00;100728.41;6370589;27;20036;-74
2022/12/21 02:36:36;;;;;;;11.23;5.63;;;;;;;-2.33;100.00;100723.28;6370452;27;20406;-73
2022/12/21 02:39:48;;;;;;;7.07;4.15;;;;;;;-2.35;100.00;100722.44;6370216;27;20069;-73
2022/12/21 02:46:48;;;;;;;7.22;5.10;;;;;;;-2.30;100.00;100723.31;6371410;27;20043;-74
2022/12/21 02:49:55;;;;;;;18.58;5.32;;;;;;;-2.40;100.00;100715.63;6352644;27;20540;-73
2022/12/21 02:53:02;;;;;;;14.55;6.07;;;;;;;-2.39;100.00;100714.75;6371371;27;20043;-73
2022/12/21 02:56:03;;;;;;;8.82;5.38;;;;;;;-2.48;100.00;100706.22;6371262;27;20479;-74
2022/12/21 02:59:07;;;;;;;7.65;4.90;;;;;;;-2.47;100.00;100692.59;6371175;27;20144;-74
2022/12/21 03:02:14;;;;;;;11.88;5.93;;;;;;;-2.48;100.00;100693.44;6369889;27;20043;-74
2022/12/21 03:05:17;;;;;;;6.18;4.07;;;;;;;-2.61;100.00;100694.28;6371248;27;20043;-73
2022/12/21 03:08:55;;;;;;;12.60;3.85;;;;;;;-2.63;100.00;100684.03;6370955;27;20088;-75
2022/12/21 03:12:22;;;;;;;8.02;4.80;;;;;;;-2.56;100.00;100682.34;6369653;27;20446;-74
2022/12/21 03:15:54;;;;;;;10.05;3.67;;;;;;;-2.51;100.00;100672.13;6328369;28;20055;-74
2022/12/21 03:19:25;;;;;;;5.18;3.28;;;;;;;-2.48;100.00;100673.00;6369643;28;20067;-74
2022/12/21 03:22:39;;;;;;;11.10;4.63;;;;;;;-2.47;100.00;100677.28;6352531;28;20047;-74
2022/12/21 03:26:16;;;;;;;5.32;3.67;;;;;;;-2.44;100.00;100682.38;6369735;28;20384;-73
2022/12/21 03:29:21;;;;;;;4.53;2.92;;;;;;;-2.47;100.00;100682.38;6337298;28;20075;-73
2022/12/21 03:32:58;;;;;;;5.72;4.35;;;;;;;-2.58;100.00;100694.25;6369568;28;20066;-74
2022/12/21 03:36:26;;;;;;;6.50;3.88;;;;;;;-2.60;100.00;100698.50;6365640;28;20051;-75
2022/12/21 03:39:29;;;;;;;8.10;4.07;;;;;;;-2.54;100.00;100702.81;6369381;28;20447;-74
2022/12/21 03:42:35;;;;;;;10.15;5.47;;;;;;;-2.54;100.00;100695.13;6369450;28;20035;-74
2022/12/21 03:45:46;;;;;;;7.30;3.83;;;;;;;-2.58;100.00;100688.31;6369412;28;20039;-73
2022/12/21 03:48:59;;;;;;;7.93;3.60;;;;;;;-2.63;100.00;100690.84;6370564;27;20039;-74
2022/12/21 03:52:09;;;;;;;7.00;4.50;;;;;;;-2.61;100.00;100698.50;6370482;27;20491;-74
2022/12/21 03:55:16;;;;;;;15.30;5.68;;;;;;;-2.66;100.00;100683.16;6369348;28;20504;-73
2022/12/21 03:58:17;;;;;;;10.35;4.38;;;;;;;-2.64;100.00;100689.13;6352142;28;20047;-75
2022/12/21 04:01:27;;;;;;;5.90;3.33;;;;;;;-2.65;100.00;100684.88;6370795;27;20402;-74
2022/12/21 04:04:36;;;;;;;7.38;4.30;;;;;;;-2.62;100.00;100690.00;6375337;27;20474;-74
2022/12/21 04:07:39;;;;;;;8.15;4.68;;;;;;;-2.70;100.00;100682.31;6374026;27;20540;-74
2022/12/21 04:10:39;;;;;;;;;;;;;;;-2.64;100.00;100678.91;6374075;27;20051;-74
2022/12/21 04:13:40;;;;;;;5.00;3.42;;;;;;;-2.63;100.00;100678.09;6373565;27;19930;-73
2022/12/21 04:16:44;;;;;;;7.05;4.00;;;;;;;-2.73;100.00;100674.63;6374908;27;20071;-73
2022/12/21 04:20:00;;;;;;;11.70;4.63;;;;;;;-2.76;100.00;100669.53;6356362;27;20460;-75
2022/12/21 04:29:39;;;;;;;4.32;3.22;;;;;;;-2.87;100.00;100664.38;6374386;27;20127;-74
2022/12/21 04:32:41;;;;;;;8.35;4.45;;;;;;;-2.93;100.00;100671.16;6373355;27;20434;-75
2022/12/21 04:39:02;;;;;;;9.27;4.45;;;;;;;-2.92;100.00;100665.22;6373042;27;20142;-74
2022/12/21 04:42:05;;;;;;;8.77;6.63;;;;;;;-2.99;100.00;100659.22;6373187;27;20154;-75
2022/12/21 04:45:06;;;;;;;14.82;5.15;;;;;;;-2.99;100.00;100659.22;6373191;27;20246;-76
2022/12/21 04:48:08;;;;;;;8.30;4.53;;;;;;;-2.85;100.00;100664.38;6374216;27;20119;-74
2022/12/21 04:51:18;;;;;;;10.20;6.03;;;;;;;-2.84;100.00;100653.34;6374053;27;20514;-74
2022/12/21 04:54:19;;;;;;;9.23;5.10;;;;;;;-2.85;100.00;100651.59;6374090;27;20398;-73
2022/12/21 04:57:20;;;;;;;7.75;4.63;;;;;;;-2.89;100.00;100645.63;6372863;27;20039;-74
2022/12/21 05:00:23;;;;;;;13.38;5.53;;;;;;;-2.79;100.00;100643.13;6372758;27;20383;-73
2022/12/21 05:03:24;;;;;;;12.43;4.82;;;;;;;-2.83;100.00;100650.75;6372707;27;20043;-75
2022/12/21 05:06:24;;;;;;;5.72;4.03;;;;;;;-2.92;100.00;100652.44;6373897;27;20368;-74
2022/12/21 05:09:25;;;;;;;12.63;5.38;;;;;;;-2.96;100.00;100649.03;6373826;27;20043;-75
2022/12/21 05:12:26;;;;;;;11.60;5.13;;;;;;;-2.93;100.00;100645.63;6371996;27;20042;-74
2022/12/21 05:15:34;;;;;;;8.75;5.65;;;;;;;-2.95;100.00;100645.59;6373601;27;20049;-75
2022/12/21 05:18:35;;;;;;;9.57;6.25;;;;;;;-3.01;100.00;100643.03;6372388;27;20054;-75
2022/12/21 05:21:36;;;;;;;11.00;5.57;;;;;;;-3.06;100.00;100642.16;6373464;27;20075;-75
2022/12/21 05:24:36;;;;;;;12.25;6.10;;;;;;;-3.08;100.00;100638.75;6373682;27;20027;-75
2022/12/21 05:27:37;;;;;;;7.22;4.75;;;;;;;-3.07;100.00;100636.22;6373838;27;20149;-75
2022/12/21 05:30:39;;;;;;;9.60;5.40;;;;;;;-3.09;100.00;100639.59;6373099;27;20039;-74
2022/12/21 05:33:40;;;;;;;12.68;4.65;;;;;;;-3.12;100.00;100644.69;6371861;27;20043;-75
2022/12/21 05:36:41;;;;;;;13.32;5.57;;;;;;;-3.19;100.00;100636.16;6373146;27;20126;-74
2022/12/21 05:39:41;;;;;;;11.68;5.13;;;;;;;-3.20;100.00;100642.09;6372909;27;20116;-74
2022/12/21 05:42:44;;;;;;;20.48;5.80;;;;;;;-3.19;100.00;100628.50;6354436;27;20055;-74
2022/12/21 05:45:45;;;;;;;10.77;5.93;;;;;;;-3.30;100.00;100615.66;6372792;27;20036;-75
2022/12/21 05:48:46;;;;;;;23.70;6.25;;;;;;;-3.13;100.00;100636.19;6372692;27;20065;-74
2022/12/21 05:51:48;;;;;;;25.40;5.75;;;;;;;-3.17;100.00;100639.56;6371501;27;20039;-74
2022/12/21 05:54:51;;;;;;;8.87;5.73;;;;;;;-3.20;100.00;100638.69;6354091;27;20460;-73
2022/12/21 05:57:52;;;;;;;15.70;6.57;;;;;;;-3.21;100.00;100642.97;6371243;27;20279;-73
2022/12/21 06:00:55;;;;;;;22.10;7.22;;;;;;;-3.25;100.00;100646.34;6371126;27;20039;-74
2022/12/21 06:03:58;;;;;;;15.80;6.80;;;;;;;-3.29;100.00;100639.53;6353947;27;20107;-75
2022/12/21 06:06:59;;;;;;;10.88;5.88;;;;;;;-3.28;100.00;100639.50;6372321;27;20042;-74
2022/12/21 06:10:00;;;;;;;14.32;6.10;;;;;;;-3.29;100.00;100640.38;6370988;27;20038;-74
2022/12/21 06:13:01;;;;;;;10.55;6.53;;;;;;;-3.29;100.00;100630.16;6372025;27;20298;-73
2022/12/21 06:16:04;;;;;;;20.52;7.40;;;;;;;-3.30;100.00;100633.53;6372041;27;20517;-74
2022/12/21 06:19:05;;;;;;;15.93;6.50;;;;;;;-3.29;100.00;100634.41;6370698;27;20108;-73
2022/12/21 06:22:05;;;;;;;11.52;7.20;;;;;;;-3.29;100.00;100621.66;6370577;27;20055;-74
2022/12/21 06:25:07;;;;;;;14.15;6.65;;;;;;;-3.26;100.00;100624.22;6369955;27;20035;-74
2022/12/21 06:28:08;;;;;;;13.50;6.55;;;;;;;-3.29;100.00;100632.72;6371934;27;20043;-75
2022/12/21 06:31:12;;;;;;;10.52;5.85;;;;;;;-3.27;100.00;100625.91;6371647;27;20475;-74
2022/12/21 06:34:13;;;;;;;21.88;8.00;;;;;;;-3.26;100.00;100625.06;6371696;27;20502;-74
2022/12/21 06:37:14;;;;;;;12.57;6.13;;;;;;;-3.18;100.00;100629.34;6370287;27;20051;-73
2022/12/21 06:40:15;;;;;;;9.35;5.93;;;;;;;-3.17;100.00;100631.91;6370260;27;20050;-73
2022/12/21 06:43:16;;;;;;;11.30;6.85;;;;;;;-3.08;100.00;100639.59;6370553;27;20062;-74
2022/12/21 06:46:18;;;;;;;9.80;5.13;;;;;;;-2.98;100.00;100643.06;6371426;27;20114;-74
2022/12/21 06:49:19;;;;;;;18.35;10.60;;;;;;;-2.90;100.00;100636.28;6371329;27;20077;-74
2022/12/21 06:52:20;;;;;;;10.60;6.90;;;;;;;-2.72;100.00;100632.94;6371229;27;20043;-74
2022/12/21 06:55:21;;;;;;;15.00;6.93;;;;;;;-2.57;100.00;100631.22;6370138;27;20039;-74
2022/12/21 06:58:22;;;;;;;12.95;6.38;;;;;;;-2.44;100.00;100626.16;6371307;27;20039;-74
2022/12/21 07:01:25;;;;;;;19.80;8.63;;;;;;;-2.28;100.00;100619.34;6370059;27;20409;-74
2022/12/21 07:04:27;;;;;;;17.63;8.88;;;;;;;-2.11;100.00;100608.28;6371139;27;20036;-74
2022/12/21 07:07:30;;;;;;;14.75;6.43;;;;;;;-2.03;100.00;100617.66;6369676;27;20445;-74
2022/12/21 07:10:31;;;;;;;20.52;8.10;;;;;;;-1.89;100.00;100627.88;6369716;27;20043;-74
2022/12/21 07:13:35;;;;;;;22.40;11.15;;;;;;;-1.93;100.00;100625.34;6369461;27;20066;-74
2022/12/21 07:16:35;;;;;;;15.05;8.45;;;;;;;-1.86;100.00;100621.91;6369756;28;20039;-74
2022/12/21 07:19:36;;;;;;;13.63;7.03;;;;;;;-1.88;100.00;100627.00;6371038;27;20272;-74
2022/12/21 07:22:37;;;;;;;13.23;7.40;;;;;;;-1.79;100.00;100618.50;6370845;27;20043;-74
2022/12/21 07:25:38;;;;;;;14.00;8.57;;;;;;;-1.74;100.00;100627.00;6369695;28;20122;-73
2022/12/21 07:28:39;;;;;;;18.20;10.23;;;;;;;-1.72;100.00;100617.63;6369593;28;20498;-74
2022/12/21 07:31:40;;;;;;;13.98;7.50;;;;;;;-1.58;100.00;100630.41;6369370;28;20118;-74
2022/12/21 07:34:40;;;;;;;12.30;7.28;;;;;;;-1.35;99.94;100626.94;6370131;27;20074;-74
2022/12/21 07:37:41;;;;;;;15.25;7.90;;;;;;;-1.09;98.84;100626.81;6374280;27;20146;-74
2022/12/21 07:40:42;;;;;;;18.20;10.07;;;;;;;-0.97;100.00;100625.91;6375708;27;20047;-74
2022/12/21 07:43:44;;;;;;;18.85;10.73;;;;;;;-0.76;99.91;100618.16;6375799;27;20069;-74
2022/12/21 07:46:45;;;;;;;16.77;9.15;;;;;;;-0.64;99.16;100620.63;6374471;27;20121;-74
2022/12/21 07:49:46;;;;;;;19.58;8.93;;;;;;;-0.70;98.75;100609.53;6357256;27;20069;-73
2022/12/21 07:52:47;;;;;;;16.83;9.50;;;;;;;-0.57;97.33;100606.06;6375491;27;20043;-74
2022/12/21 07:55:47;;;;;;;24.05;10.05;;;;;;;-0.48;97.90;100611.13;6375690;27;20494;-74
2022/12/21 07:58:48;;;;;;;11.93;6.57;;;;;;;-0.38;96.67;100618.75;6375512;27;20069;-74
2022/12/21 08:01:49;;;;;;;9.60;6.13;;;;;;;-0.32;96.38;100623.84;6375166;27;20130;-74
2022/12/21 08:04:52;;;;;;;12.18;6.57;;;;;;;-0.34;95.74;100631.53;6374106;27;20388;-74
2022/12/21 08:07:57;;;;;;;13.23;6.43;;;;;;;-0.34;93.72;100620.44;6356802;27;20047;-75
2022/12/21 08:10:58;;;;;;;11.48;6.10;;;;;;;-0.26;94.71;100616.94;6373846;27;20040;-74
2022/12/21 08:13:59;;;;;;;13.63;7.28;;;;;;;-0.11;96.32;100610.00;6373653;27;20126;-74
2022/12/21 08:17:00;;;;;;;16.25;8.13;;;;;;;0.00;95.99;100600.50;6375004;27;20064;-74
2022/12/21 08:20:01;;;;;;;23.15;9.68;;;;;;;0.11;95.79;100613.25;6374911;27;20521;-74
2022/12/21 08:23:02;;;;;;;19.75;8.50;;;;;;;0.16;95.31;100611.47;6373493;27;20051;-74
2022/12/21 08:26:05;;;;;;;16.10;8.48;;;;;;;0.17;91.35;100615.75;6374866;27;20039;-74
2022/12/21 08:29:11;;;;;;;10.63;5.60;;;;;;;0.20;91.78;100598.56;6373438;27;20043;-74
2022/12/21 08:32:12;;;;;;;17.10;7.90;;;;;;;0.26;91.88;100597.69;6374055;27;20043;-75
2022/12/21 08:35:13;;;;;;;13.57;8.05;;;;;;;0.36;91.08;100586.44;6375260;27;20452;-75
2022/12/21 08:38:14;;;;;;;16.52;7.65;;;;;;;0.47;91.01;100585.47;6375131;27;20055;-74
2022/12/21 08:41:17;;;;;;;13.82;7.63;;;;;;;0.49;90.63;100594.88;6372640;27;20035;-75
2022/12/21 08:44:18;;;;;;;7.85;5.55;;;;;;;0.51;90.25;100589.72;6377438;27;20125;-76
2022/12/21 08:47:19;;;;;;;19.70;7.38;;;;;;;0.54;90.83;100580.28;6398188;27;20467;-75
2022/12/21 08:50:20;;;;;;;15.07;8.52;;;;;;;0.66;89.85;100583.56;6398852;27;20054;-74
2022/12/21 08:53:21;;;;;;;12.45;7.50;;;;;;;0.78;88.14;100575.69;6373754;27;20607;-75
2022/12/21 08:56:22;;;;;;;13.57;6.88;;;;;;;0.87;87.53;100578.16;6374042;27;20043;-75
2022/12/21 08:59:23;;;;;;;11.52;5.70;;;;;;;0.99;87.38;100570.28;6373059;27;20041;-75
2022/12/21 09:02:24;;;;;;;15.10;8.18;;;;;;;1.01;87.19;100570.28;6372236;27;20043;-74
2022/12/21 09:05:25;;;;;;;18.88;8.18;;;;;;;1.11;89.20;100561.56;6373963;27;20042;-74
2022/12/21 09:08:26;;;;;;;21.33;8.90;;;;;;;1.11;86.94;100555.56;6373951;27;20051;-75
2022/12/21 09:11:29;;;;;;;13.98;9.25;;;;;;;1.29;88.48;100554.47;6373801;27;20351;-75
2022/12/21 09:14:31;;;;;;;23.40;9.88;;;;;;;1.41;87.18;100551.69;6372773;27;20054;-75
2022/12/21 09:17:32;;;;;;;16.85;9.30;;;;;;;1.49;86.66;100555.00;6372590;27;20509;-76
2022/12/21 09:20:33;;;;;;;16.73;6.85;;;;;;;1.41;85.49;100560.25;6372487;27;20039;-75
2022/12/21 09:23:34;;;;;;;11.25;6.05;;;;;;;1.41;86.44;100562.00;6372980;27;20514;-74
2022/12/21 09:26:34;;;;;;;16.95;6.97;;;;;;;1.50;86.69;100550.69;6372367;27;20046;-74
2022/12/21 09:29:35;;;;;;;17.20;7.47;;;;;;;1.50;85.64;100541.25;6373116;27;20034;-74
2022/12/21 09:32:36;;;;;;;19.35;7.82;;;;;;;1.55;85.97;100546.34;6373310;27;20043;-74
2022/12/21 09:35:38;;;;;;;14.85;5.63;;;;;;;1.61;85.56;100541.94;6372240;27;20559;-74
2022/12/21 09:38:39;;;;;;;11.20;6.82;;;;;;;1.56;86.13;100541.16;6372016;27;20483;-76
2022/12/21 09:41:49;;;;;;;15.43;6.07;;;;;;;1.52;84.86;100533.53;6373011;27;20078;-75
2022/12/21 09:45:05;;;;;;;15.05;6.85;;;;;;;1.60;84.67;100532.53;6371895;27;20043;-74
2022/12/21 09:48:15;;;;;;;18.42;8.32;;;;;;;1.67;85.82;100532.41;6354352;27;20043;-75
2022/12/21 09:51:19;;;;;;;10.63;6.22;;;;;;;1.67;84.64;100528.16;6371523;27;20031;-75
2022/12/21 09:54:52;;;;;;;11.70;5.70;;;;;;;1.69;85.10;100520.38;6354068;27;20180;-75
2022/12/21 09:57:54;;;;;;;;;;;;;;;1.62;84.53;100517.06;6365971;27;20380;-75
2022/12/21 10:01:13;;;;;;;34.03;9.48;;;;;;;1.83;83.64;100509.84;6371228;27;19923;-75
2022/12/21 10:04:32;;;;;;;51.80;18.40;;;;;;;1.91;84.52;100518.28;6353857;27;20526;-76
2022/12/21 10:08:06;;;;;;;59.33;18.77;;;;;;;1.92;83.64;100520.84;6371139;27;20415;-76
2022/12/21 10:11:37;;;;;;;27.40;13.70;;;;;;;1.97;83.27;100520.75;6370921;27;20043;-75
2022/12/21 10:15:04;;;;;;;28.60;10.65;;;;;;;2.02;81.63;100518.97;6370950;27;20410;-75
2022/12/21 10:18:21;;;;;;;48.90;17.00;;;;;;;2.03;82.29;100515.50;6360144;27;20061;-74
2022/12/21 10:21:33;;;;;;;55.17;20.70;;;;;;;2.06;82.87;100506.84;6370871;27;20074;-74
2022/12/21 10:24:59;;;;;;;94.90;33.63;;;;;;;2.05;81.28;100510.31;6370814;27;20380;-75
2022/12/21 10:28:11;;;;;;;71.95;26.20;;;;;;;2.15;82.67;100517.00;6362410;27;20055;-76
2022/12/21 10:31:24;;;;;;;58.28;23.02;;;;;;;2.20;83.40;100507.44;6371194;27;20054;-75
2022/12/21 10:34:36;;;;;;;40.55;16.48;;;;;;;2.19;81.52;100505.75;6371264;27;20122;-75
2022/12/21 10:37:38;;;;;;;30.13;12.57;;;;;;;2.22;81.61;100506.56;6371914;27;20471;-76
2022/12/21 10:40:40;;;;;;;27.70;12.32;;;;;;;2.33;83.22;100513.22;6373222;27;20057;-76
2022/12/21 10:43:42;;;;;;;41.10;15.13;;;;;;;2.26;83.57;100493.59;6375980;27;20059;-76
2022/12/21 10:46:43;;;;;;;37.00;15.52;;;;;;;2.35;83.41;100496.84;6372664;27;20050;-75
2022/12/21 10:50:10;;;;;;;22.75;11.65;;;;;;;2.40;82.41;100484.72;6370553;27;20043;-75
2022/12/21 10:53:26;;;;;;;32.95;12.48;;;;;;;2.38;83.16;100478.75;6371413;27;20086;-77
2022/12/21 10:56:28;;;;;;;21.60;13.07;;;;;;;2.42;85.04;100472.66;6371075;27;20046;-76
2022/12/21 10:59:30;;;;;;;;;;;;;;;2.50;82.46;100471.66;6371419;27;20043;-75
2022/12/21 11:02:35;;;;;;;21.35;9.10;;;;;;;2.45;80.74;100456.31;6369592;27;19919;-76
2022/12/21 11:05:39;;;;;;;37.55;15.05;;;;;;;2.51;81.83;100455.31;6351371;28;20062;-76
2022/12/21 11:08:51;;;;;;;45.50;16.77;;;;;;;2.48;80.20;100457.97;6366387;27;20124;-76
2022/12/21 11:11:53;;;;;;;38.03;16.15;;;;;;;2.51;82.35;100456.19;6367331;27;20103;-77
2022/12/21 11:14:55;;;;;;;28.00;13.88;;;;;;;2.48;78.94;100445.94;6368571;27;20526;-77
2022/12/21 11:17:56;;;;;;;32.97;11.83;;;;;;;2.52;79.88;100446.72;6368660;27;20047;-77
2022/12/21 11:20:57;;;;;;;18.33;10.75;;;;;;;2.58;81.10;100446.59;6369037;27;20058;-76
2022/12/21 11:24:27;;;;;;;22.65;9.90;;;;;;;2.58;80.99;100449.16;6369132;28;20042;-78
2022/12/21 11:27:33;;;;;;;19.52;10.68;;;;;;;2.53;82.67;100438.97;6351746;27;20508;-78
2022/12/21 11:30:35;;;;;;;24.95;10.70;;;;;;;2.53;83.81;100443.25;6351019;28;20414;-78
2022/12/21 11:33:36;;;;;;;18.27;11.57;;;;;;;2.53;84.63;100440.66;6357417;27;20177;-78
2022/12/21 11:36:56;;;;;;;20.48;10.88;;;;;;;2.56;84.65;100440.63;6366201;28;20437;-78
2022/12/21 11:40:06;;;;;;;20.95;11.60;;;;;;;2.58;82.95;100439.69;6369741;28;20467;-78
2022/12/21 11:43:16;;;;;;;19.20;11.95;;;;;;;2.52;82.46;100439.00;6349013;28;20043;-78
2022/12/21 11:46:31;;;;;;;24.40;11.55;;;;;;;2.55;83.78;100433.75;6346952;28;20050;-78
2022/12/21 11:49:38;;;;;;;27.65;14.35;;;;;;;2.53;83.66;100430.38;6345656;28;20039;-78
2022/12/21 11:53:07;;;;;;;33.25;13.27;;;;;;;2.41;83.81;100431.50;6346778;28;20043;-78
2022/12/21 11:56:36;;;;;;;28.48;12.45;;;;;;;2.50;83.92;100415.84;6346725;28;20122;-78
2022/12/21 11:59:59;;;;;;;30.15;13.23;;;;;;;2.56;84.10;100420.00;6378919;27;20122;-78
2022/12/21 12:03:20;;;;;;;29.65;13.05;;;;;;;2.61;83.38;100425.91;6348345;28;20079;-78
2022/12/21 12:06:39;;;;;;;23.05;11.75;;;;;;;2.58;83.08;100418.25;6324423;28;20060;-78
2022/12/21 12:09:52;;;;;;;25.83;10.90;;;;;;;2.63;84.51;100409.50;6359298;28;20035;-78
2022/12/21 12:13:15;;;;;;;28.42;13.23;;;;;;;2.63;83.55;100406.09;6353525;28;20046;-78
2022/12/21 12:16:32;;;;;;;25.17;12.52;;;;;;;2.64;84.24;100405.22;6353600;28;20080;-78
2022/12/21 12:20:00;;;;;;;27.30;14.05;;;;;;;2.61;83.71;100395.84;6370988;28;20392;-78
2022/12/21 12:23:21;;;;;;;22.27;11.10;;;;;;;2.58;81.44;100390.75;6364163;27;20043;-78
2022/12/21 12:27:10;;;;;;;17.75;9.40;;;;;;;2.65;82.09;100390.63;6349885;28;20048;-78
2022/12/21 12:30:24;;;;;;;20.05;8.80;;;;;;;2.54;80.61;100402.00;6313049;28;20502;-78
2022/12/21 12:33:36;;;;;;;19.75;10.88;;;;;;;2.45;82.36;100391.06;6356147;27;20035;-78
2022/12/21 12:36:46;;;;;;;;;;;;;;;2.54;82.34;100399.44;6363570;27;20039;-78
2022/12/21 12:40:20;;;;;;;22.17;9.85;;;;;;;2.51;80.76;100393.50;6369898;27;19962;-78
2022/12/21 12:43:51;;;;;;;18.17;9.40;;;;;;;2.52;82.03;100393.47;6369360;27;20551;-78
2022/12/21 12:47:16;;;;;;;22.85;11.25;;;;;;;2.52;83.74;100395.19;6350414;27;20075;-78
2022/12/21 12:50:24;;;;;;;19.65;11.10;;;;;;;2.48;84.11;100389.25;6371325;27;20045;-77
2022/12/21 12:53:27;;;;;;;29.90;14.80;;;;;;;2.42;82.13;100379.94;6354551;27;20518;-77
2022/12/21 12:57:05;;;;;;;18.15;8.77;;;;;;;2.49;83.51;100380.66;6372125;27;20076;-77
2022/12/21 13:00:16;;;;;;;15.90;9.85;;;;;;;2.51;83.71;100371.19;6286857;27;20097;-77
2022/12/21 13:03:28;;;;;;;24.00;12.43;;;;;;;2.57;84.12;100378.75;6372499;27;20047;-77
2022/12/21 13:31:53;;;;;;;37.25;16.25;;;;;;;2.17;86.88;100358.19;7727059;23;20482;-73
2022/12/21 13:35:02;;;;;;;27.20;16.58;;;;;;;2.24;86.30;100358.91;7728615;22;20066;-76
2022/12/21 13:38:25;;;;;;;26.15;13.73;;;;;;;2.26;86.34;100352.81;7739706;22;20019;-76
2022/12/21 13:41:38;;;;;;;27.08;14.18;;;;;;;2.22;85.18;100354.66;7732369;23;20322;-74
2022/12/21 13:44:45;;;;;;;28.98;14.27;;;;;;;2.27;86.04;100348.53;7699455;23;20036;-74
2022/12/21 13:47:48;;;;;;;29.42;14.88;;;;;;;2.20;86.08;100328.09;7726018;22;20012;-77
2022/12/21 13:50:54;;;;;;;;;;;;;;;2.21;85.74;100342.63;7726049;22;20013;-73
2022/12/21 13:54:20;;;;;;;27.10;11.63;;;;;;;2.21;84.91;100342.63;7723742;23;19942;-73
2022/12/21 13:57:34;;;;;;;22.10;12.20;;;;;;;2.20;86.62;100337.50;7729083;23;20335;-73
2022/12/21 14:01:03;;;;;;;32.15;12.43;;;;;;;2.24;85.90;100344.28;7726444;22;20340;-74
2022/12/21 14:04:39;;;;;;;23.80;12.80;;;;;;;2.22;83.23;100343.47;7723376;23;20028;-74
2022/12/21 14:07:52;;;;;;;28.00;10.95;;;;;;;2.26;83.28;100342.53;7687476;23;20021;-75
2022/12/21 14:11:16;;;;;;;24.25;10.95;;;;;;;2.27;83.50;100344.25;7725216;23;20023;-79
2022/12/21 14:14:20;;;;;;;25.40;10.80;;;;;;;2.28;84.28;100337.34;7729283;23;20024;-79
2022/12/21 14:17:32;;;;;;;30.08;14.52;;;;;;;2.29;83.17;100339.91;7728965;23;20023;-74
2022/12/21 14:20:36;;;;;;;28.67;15.32;;;;;;;2.27;86.75;100343.41;7723517;23;20016;-74
2022/12/21 14:23:47;;;;;;;27.90;14.77;;;;;;;2.24;87.29;100336.56;7725280;22;20013;-74
2022/12/21 14:27:17;;;;;;;31.00;14.02;;;;;;;2.24;85.29;100336.56;7722612;23;20314;-73
2022/12/21 14:30:19;;;;;;;20.60;12.35;;;;;;;2.22;85.02;100328.91;7717567;23;20051;-79
2022/12/21 14:33:37;;;;;;;20.42;11.60;;;;;;;2.17;84.82;100325.56;7715159;23;20096;-78
2022/12/21 14:36:37;;;;;;;25.15;12.55;;;;;;;2.19;84.69;100325.53;7717918;23;20021;-73
2022/12/21 14:39:44;;;;;;;25.23;13.20;;;;;;;2.22;84.86;100330.59;7712749;23;20480;-79
2022/12/21 14:42:51;;;;;;;22.27;12.52;;;;;;;2.20;86.38;100325.50;7713578;23;20028;-80
2022/12/21 14:45:52;;;;;;;25.20;11.52;;;;;;;2.15;87.47;100319.59;7715720;23;20016;-79
2022/12/21 14:49:06;;;;;;;19.42;12.07;;;;;;;2.18;85.83;100326.41;7715440;23;20459;-74
2022/12/21 14:52:29;;;;;;;30.30;12.65;;;;;;;2.22;85.59;100330.59;7715180;23;20036;-74
2022/12/21 14:55:31;;;;;;;;;;;;;;;2.26;84.47;100326.25;7690194;23;20017;-80
2022/12/21 14:58:35;;;;;;;16.58;10.30;;;;;;;2.25;83.75;100330.56;7718109;23;19939;-79
2022/12/21 15:01:40;;;;;;;34.25;14.15;;;;;;;2.25;84.81;100320.25;7716862;23;20021;-74
2022/12/21 15:04:48;;;;;;;27.98;12.45;;;;;;;2.21;85.09;100321.19;7716984;23;20527;-74